^^
Station Historical Data
Daily Summary for March 20, 2017 Units:  English    Metric   Both
« Previous Day
Next Day »
Daily Weekly Monthly Yearly Custom
  High: Low: Average:
Temperature: 49.1 °F 28.2 °F 39.4 °F
Dew Point: 28.6 °F 22.1 °F 25.4 °F
Humidity: 80 % 35 % 59 %
Wind Speed: 8.9 mph 0.0 mph 1.5 mph
Wind Gust: 14.0 mph - -
Wind:- - WNW
Pressure: 30.22 in 30.04 in -
Precipitation: 0.00 in    
Historical Graphs
 
 
Tabular Data for March 20, 2017
Time Temperature Dew Point Pressure Wind Wind Speed Wind Gust Humidity Rainfall Rate (Hourly) solar Conditions
00:04 37.5 °F 28.6 °F 30.21 in Calm   9.0 mph 70 % 0.00 in 0.0 W/m2 OVC
00:09 37.4 °F 28.5 °F 30.21 in NW 3.0 mph 11.0 mph 70 % 0.00 in 0.0 W/m2 OVC
00:14 37.4 °F 28.2 °F 30.21 in NW 3.0 mph 11.0 mph 69 % 0.00 in 0.0 W/m2 OVC
00:19 37.3 °F 28.1 °F 30.21 in NW 2.0 mph 9.0 mph 69 % 0.00 in 0.0 W/m2 OVC
00:24 37.2 °F 28.0 °F 30.21 in NW 3.0 mph 11.0 mph 69 % 0.00 in 0.0 W/m2 OVC
00:29 37.1 °F 27.9 °F 30.21 in NW 3.0 mph 7.0 mph 69 % 0.00 in 0.0 W/m2 OVC
00:34 37.0 °F 28.1 °F 30.21 in NW 1.0 mph 7.0 mph 70 % 0.00 in 0.0 W/m2 OVC
00:39 36.9 °F 28.0 °F 30.21 in Calm   5.0 mph 70 % 0.00 in 0.0 W/m2 OVC
00:44 36.8 °F 27.9 °F 30.20 in Calm   2.0 mph 70 % 0.00 in 0.0 W/m2 OVC
00:49 36.7 °F 27.8 °F 30.21 in NW 1.0 mph 9.0 mph 70 % 0.00 in 0.0 W/m2 OVC
00:54 36.5 °F 27.6 °F 30.20 in Calm   3.0 mph 70 % 0.00 in 0.0 W/m2 OVC
00:59 36.2 °F 27.4 °F 30.20 in Calm   2.0 mph 70 % 0.00 in 0.0 W/m2 OVC
01:04 36.2 °F 27.4 °F 30.20 in Calm   2.0 mph 70 % 0.00 in 0.0 W/m2 OVC
01:09 35.8 °F 27.0 °F 30.20 in Calm   1.0 mph 70 % 0.00 in 0.0 W/m2 OVC
01:14 35.4 °F 26.9 °F 30.20 in Calm     71 % 0.00 in 0.0 W/m2 OVC
01:19 35.0 °F 26.9 °F 30.20 in Calm     72 % 0.00 in 0.0 W/m2 OVC
01:24 34.7 °F 26.6 °F 30.20 in Calm     72 % 0.00 in 0.0 W/m2 OVC
01:29 34.6 °F 26.5 °F 30.20 in Calm   1.0 mph 72 % 0.00 in 0.0 W/m2 OVC
01:34 34.7 °F 26.9 °F 30.20 in Calm     73 % 0.00 in 0.0 W/m2 OVC
01:39 34.4 °F 26.3 °F 30.20 in Calm     72 % 0.00 in 0.0 W/m2 OVC
01:44 34.1 °F 26.3 °F 30.20 in Calm     73 % 0.00 in 0.0 W/m2 OVC
01:49 34.1 °F 26.7 °F 30.20 in Calm     74 % 0.00 in 0.0 W/m2 OVC
01:54 34.1 °F 26.7 °F 30.20 in Calm   1.0 mph 74 % 0.00 in 0.0 W/m2 OVC
01:59 34.1 °F 26.3 °F 30.20 in Calm     73 % 0.00 in 0.0 W/m2 OVC
02:04 34.3 °F 26.5 °F 30.20 in Calm     73 % 0.00 in 0.0 W/m2 OVC
02:09 34.2 °F 26.4 °F 30.20 in NW 1.0 mph 4.0 mph 73 % 0.00 in 0.0 W/m2 OVC
02:14 34.3 °F 26.2 °F 30.20 in Calm   3.0 mph 72 % 0.00 in 0.0 W/m2 OVC
02:19 34.1 °F 25.7 °F 30.20 in Calm     71 % 0.00 in 0.0 W/m2 OVC
02:24 33.7 °F 25.3 °F 30.20 in Calm     71 % 0.00 in 0.0 W/m2 OVC
02:29 33.8 °F 25.7 °F 30.20 in Calm     72 % 0.00 in 0.0 W/m2 OVC
02:34 33.8 °F 25.4 °F 30.20 in Calm     71 % 0.00 in 0.0 W/m2 OVC
02:39 33.9 °F 25.5 °F 30.19 in Calm   1.0 mph 71 % 0.00 in 0.0 W/m2 OVC
02:44 33.8 °F 25.4 °F 30.19 in NW 3.0 mph 5.0 mph 71 % 0.00 in 0.0 W/m2 OVC
02:49 33.9 °F 25.5 °F 30.20 in Calm   4.0 mph 71 % 0.00 in 0.0 W/m2 OVC
02:54 33.7 °F 25.3 °F 30.19 in Calm     71 % 0.00 in 0.0 W/m2 OVC
02:59 33.8 °F 25.4 °F 30.19 in Calm     71 % 0.00 in 0.0 W/m2 OVC
03:04 32.8 °F 24.4 °F 30.19 in Calm     71 % 0.00 in 0.0 W/m2 OVC
03:09 32.6 °F 24.6 °F 30.19 in Calm     72 % 0.00 in 0.0 W/m2 OVC
03:14 32.0 °F 24.3 °F 30.19 in Calm     73 % 0.00 in 0.0 W/m2 OVC
03:19 31.7 °F 24.0 °F 30.19 in Calm     73 % 0.00 in 0.0 W/m2 OVC
03:24 31.6 °F 24.3 °F 30.19 in Calm     74 % 0.00 in 0.0 W/m2 OVC
03:29 31.6 °F 24.3 °F 30.19 in Calm     74 % 0.00 in 0.0 W/m2 OVC
03:34 31.6 °F 24.3 °F 30.19 in Calm     74 % 0.00 in 0.0 W/m2 OVC
03:39 31.8 °F 24.5 °F 30.19 in Calm   1.0 mph 74 % 0.00 in 0.0 W/m2 OVC
03:44 31.6 °F 24.3 °F 30.19 in Calm     74 % 0.00 in 0.0 W/m2 OVC
03:49 31.3 °F 24.0 °F 30.19 in Calm     74 % 0.00 in 0.0 W/m2 OVC
03:54 31.1 °F 23.8 °F 30.18 in Calm     74 % 0.00 in 0.0 W/m2 OVC
03:59 30.9 °F 23.9 °F 30.18 in Calm     75 % 0.00 in 0.0 W/m2 OVC
04:04 30.6 °F 23.6 °F 30.18 in Calm     75 % 0.00 in 0.0 W/m2 OVC
04:09 30.1 °F 23.1 °F 30.18 in Calm     75 % 0.00 in 0.0 W/m2 OVC
04:14 29.8 °F 23.2 °F 30.18 in Calm     76 % 0.00 in 0.0 W/m2 OVC
04:19 29.7 °F 23.1 °F 30.18 in Calm     76 % 0.00 in 0.0 W/m2 OVC
04:24 30.0 °F 23.7 °F 30.18 in Calm     77 % 0.00 in 0.0 W/m2 OVC
04:29 29.8 °F 23.2 °F 30.18 in Calm   2.0 mph 76 % 0.00 in 0.0 W/m2 OVC
04:34 29.7 °F 23.4 °F 30.18 in Calm     77 % 0.00 in 0.0 W/m2 OVC
04:39 29.0 °F 22.7 °F 30.18 in Calm     77 % 0.00 in 0.0 W/m2 OVC
04:49 28.3 °F 22.6 °F 30.19 in Calm     79 % 0.00 in 0.0 W/m2 OVC
04:54 28.6 °F 22.9 °F 30.19 in Calm     79 % 0.00 in 0.0 W/m2 OVC
04:59 28.2 °F 22.5 °F 30.19 in Calm     79 % 0.00 in 0.0 W/m2 OVC
05:04 28.4 °F 23.0 °F 30.20 in Calm   2.0 mph 80 % 0.00 in 0.0 W/m2 OVC
05:09 28.6 °F 23.2 °F 30.20 in Calm   1.0 mph 80 % 0.00 in 0.0 W/m2 OVC
05:14 28.5 °F 23.1 °F 30.20 in Calm     80 % 0.00 in 0.0 W/m2 OVC
05:19 28.3 °F 22.9 °F 30.20 in Calm     80 % 0.00 in 0.0 W/m2 OVC
05:24 28.3 °F 22.9 °F 30.20 in Calm   1.0 mph 80 % 0.00 in 0.0 W/m2 OVC
05:29 29.0 °F 23.6 °F 30.20 in Calm   2.0 mph 80 % 0.00 in 0.0 W/m2 OVC
05:34 29.6 °F 23.9 °F 30.20 in Calm   2.0 mph 79 % 0.00 in 0.0 W/m2 OVC
05:39 30.0 °F 24.3 °F 30.20 in NNW 1.0 mph 5.0 mph 79 % 0.00 in 0.0 W/m2 OVC
05:44 30.4 °F 24.4 °F 30.20 in NW 1.0 mph 4.0 mph 78 % 0.00 in 0.0 W/m2 OVC
05:49 31.0 °F 24.6 °F 30.21 in Calm   5.0 mph 77 % 0.00 in 0.0 W/m2 OVC
05:54 30.9 °F 24.2 °F 30.21 in NW 1.0 mph 3.0 mph 76 % 0.00 in 0.0 W/m2 OVC
05:59 30.6 °F 23.6 °F 30.21 in Calm   2.0 mph 75 % 0.00 in 0.0 W/m2 OVC
06:04 30.5 °F 23.8 °F 30.21 in Calm   1.0 mph 76 % 0.00 in 0.0 W/m2 OVC
06:09 30.8 °F 24.1 °F 30.21 in Calm   6.0 mph 76 % 0.00 in 0.0 W/m2 OVC
06:14 30.9 °F 23.9 °F 30.21 in Calm   2.0 mph 75 % 0.00 in 0.0 W/m2 OVC
06:19 30.8 °F 23.8 °F 30.22 in Calm   1.0 mph 75 % 0.00 in 0.0 W/m2 OVC
06:24 30.7 °F 23.4 °F 30.22 in Calm   5.0 mph 74 % 0.00 in 0.0 W/m2 OVC
06:29 30.4 °F 23.4 °F 30.22 in Calm     75 % 0.00 in 0.0 W/m2 OVC
06:34 30.5 °F 23.5 °F 30.22 in Calm     75 % 0.00 in 0.0 W/m2 OVC
06:39 31.2 °F 23.9 °F 30.22 in NW 1.0 mph 2.0 mph 74 % 0.00 in 0.0 W/m2 OVC
06:44 31.5 °F 23.8 °F 30.22 in Calm   3.0 mph 73 % 0.00 in 0.0 W/m2 OVC
06:49 31.6 °F 23.6 °F 30.22 in Calm   1.0 mph 72 % 0.00 in 0.0 W/m2 OVC
06:54 31.8 °F 23.8 °F 30.22 in Calm   2.0 mph 72 % 0.00 in 0.0 W/m2 OVC
06:59 32.2 °F 23.8 °F 30.22 in Calm     71 % 0.00 in 0.0 W/m2 OVC
07:04 31.8 °F 23.5 °F 30.22 in Calm   2.0 mph 71 % 0.00 in 0.0 W/m2 OVC
07:09 32.0 °F 23.7 °F 30.22 in Calm   1.0 mph 71 % 0.00 in 7.0 W/m2 OVC
07:14 31.1 °F 22.8 °F 30.22 in Calm   2.0 mph 71 % 0.00 in 9.0 W/m2 OVC
07:19 31.0 °F 23.4 °F 30.22 in Calm   2.0 mph 73 % 0.00 in 12.0 W/m2 OVC
07:24 31.2 °F 23.5 °F 30.21 in West 1.0 mph 3.0 mph 73 % 0.00 in 16.0 W/m2 CLR
07:29 31.9 °F 24.2 °F 30.22 in Calm   3.0 mph 73 % 0.00 in 19.0 W/m2 CLR
07:34 32.0 °F 24.0 °F 30.21 in Calm     72 % 0.00 in 21.0 W/m2 FEW
07:39 31.8 °F 23.8 °F 30.21 in Calm     72 % 0.00 in 26.0 W/m2 SCT
07:44 32.0 °F 24.0 °F 30.21 in Calm     72 % 0.00 in 35.0 W/m2 SCT
07:49 32.2 °F 24.2 °F 30.22 in Calm     72 % 0.00 in 47.0 W/m2 FEW
07:54 32.8 °F 24.8 °F 30.21 in Calm     72 % 0.00 in 65.0 W/m2 CLR
07:59 33.4 °F 25.0 °F 30.21 in Calm   3.0 mph 71 % 0.00 in 67.0 W/m2 FEW
08:09 33.9 °F 25.1 °F 30.22 in NW 4.0 mph 4.0 mph 70 % 0.00 in 90.0 W/m2 CLR
08:14 34.1 °F 25.0 °F 30.22 in Calm   3.5 mph 69 % 0.00 in 70.0 W/m2 SCT
08:19 34.2 °F 25.1 °F 30.22 in NW 0.2 mph 2.3 mph 69 % 0.00 in 70.0 W/m2 SCT
08:24 34.2 °F 25.1 °F 30.21 in Calm     69 % 0.00 in 113.0 W/m2 FEW
08:29 34.2 °F 25.1 °F 30.21 in NW 4.3 mph 5.0 mph 69 % 0.00 in 100.0 W/m2 SCT
08:34 34.4 °F 25.3 °F 30.21 in Calm     69 % 0.00 in 98.0 W/m2 SCT
08:39 34.7 °F 25.6 °F 30.21 in North 1.3 mph 8.1 mph 69 % 0.00 in 130.0 W/m2 FEW
08:44 34.8 °F 25.7 °F 30.21 in NW 0.2 mph 3.5 mph 69 % 0.00 in 144.0 W/m2 SCT
08:49 35.1 °F 25.9 °F 30.21 in NNE 1.8 mph 3.5 mph 69 % 0.00 in 153.0 W/m2 FEW
08:54 35.0 °F 25.9 °F 30.21 in Calm     69 % 0.00 in 178.0 W/m2 FEW
08:59 35.5 °F 26.0 °F 30.21 in NNW 4.7 mph 4.7 mph 68 % 0.00 in 221.0 W/m2 FEW
09:04 35.9 °F 26.0 °F 30.21 in NNW 1.6 mph 5.8 mph 67 % 0.00 in 213.0 W/m2 FEW
09:10 36.2 °F 26.3 °F 30.20 in NW 4.0 mph 4.0 mph 67 % 0.00 in 213.0 W/m2 OVC
09:15 36.3 °F 26.4 °F 30.20 in NW 2.4 mph 5.0 mph 67 % 0.00 in 359.0 W/m2 CLR
09:20 36.8 °F 26.5 °F 30.20 in NNW 1.8 mph 3.5 mph 66 % 0.00 in 422.0 W/m2 CLR
09:25 36.9 °F 26.6 °F 30.21 in NW 0.1 mph 3.5 mph 66 % 0.00 in 381.0 W/m2 CLR
09:30 37.5 °F 26.8 °F 30.21 in Calm   3.5 mph 65 % 0.00 in 387.0 W/m2 CLR
09:35 37.7 °F 26.6 °F 30.21 in NW 0.3 mph 1.2 mph 64 % 0.00 in 492.0 W/m2 CLR
09:40 37.8 °F 26.3 °F 30.20 in NW 1.2 mph 4.6 mph 63 % 0.00 in 503.0 W/m2 CLR
09:46 38.1 °F 25.8 °F 30.20 in NNW 3.9 mph 9.2 mph 61 % 0.00 in 522.0 W/m2 CLR
09:51 38.3 °F 26.0 °F 30.20 in NNW 4.9 mph 5.0 mph 61 % 0.00 in 538.0 W/m2 CLR
09:56 38.5 °F 25.8 °F 30.20 in NW 0.8 mph 3.5 mph 60 % 0.00 in 552.0 W/m2 CLR
10:01 38.2 °F 25.9 °F 30.20 in North 0.3 mph 2.3 mph 61 % 0.00 in 571.0 W/m2 CLR
10:06 38.0 °F 25.3 °F 30.20 in North 1.1 mph 5.8 mph 60 % 0.00 in 585.0 W/m2 CLR
10:11 37.9 °F 25.2 °F 30.20 in NNW 2.0 mph 3.5 mph 60 % 0.00 in 592.0 W/m2 CLR
10:16 38.1 °F 25.0 °F 30.19 in NNE 2.1 mph 3.5 mph 59 % 0.00 in 601.0 W/m2 CLR
10:21 38.7 °F 25.6 °F 30.19 in NNW 4.4 mph 8.1 mph 59 % 0.00 in 622.0 W/m2 CLR
10:26 39.3 °F 25.7 °F 30.19 in NNW 4.8 mph 9.2 mph 58 % 0.00 in 635.0 W/m2 CLR
10:31 39.8 °F 25.8 °F 30.19 in NNW 2.1 mph 4.6 mph 57 % 0.00 in 652.0 W/m2 CLR
10:36 40.1 °F 25.6 °F 30.19 in NW 4.6 mph 9.2 mph 56 % 0.00 in 650.0 W/m2 CLR
10:41 39.8 °F 25.8 °F 30.18 in NNW 1.8 mph 3.0 mph 57 % 0.00 in 663.0 W/m2 CLR
10:46 40.0 °F 25.6 °F 30.18 in WNW 2.7 mph 5.8 mph 56 % 0.00 in 673.0 W/m2 CLR
10:51 40.0 °F 25.1 °F 30.18 in NNW 1.3 mph 3.5 mph 55 % 0.00 in 691.0 W/m2 CLR
10:56 39.7 °F 24.4 °F 30.18 in North 2.5 mph 5.8 mph 54 % 0.00 in 714.0 W/m2 CLR
11:01 40.4 °F 25.5 °F 30.18 in NNW 1.4 mph 4.6 mph 55 % 0.00 in 728.0 W/m2 CLR
11:06 40.5 °F 25.1 °F 30.17 in North 4.0 mph 4.6 mph 54 % 0.00 in 735.0 W/m2 CLR
11:11 40.4 °F 24.6 °F 30.17 in North 0.2 mph 3.5 mph 53 % 0.00 in 744.0 W/m2 CLR
11:16 41.2 °F 24.9 °F 30.17 in Calm   3.5 mph 52 % 0.00 in 754.0 W/m2 CLR
11:21 41.3 °F 25.4 °F 30.17 in North 4.7 mph 8.1 mph 53 % 0.00 in 765.0 W/m2 CLR
11:26 41.3 °F 25.4 °F 30.16 in North 1.8 mph 8.1 mph 53 % 0.00 in 772.0 W/m2 CLR
11:31 41.5 °F 25.2 °F 30.16 in WNW 3.5 mph 5.0 mph 52 % 0.00 in 780.0 W/m2 CLR
11:36 41.3 °F 24.5 °F 30.16 in Calm   1.2 mph 51 % 0.00 in 786.0 W/m2 CLR
11:41 41.5 °F 24.7 °F 30.16 in Calm   2.3 mph 51 % 0.00 in 793.0 W/m2 CLR
11:46 41.4 °F 23.2 °F 30.16 in Calm   2.3 mph 48 % 0.00 in 798.0 W/m2 CLR
11:51 41.8 °F 24.5 °F 30.16 in NNW 0.5 mph 3.5 mph 50 % 0.00 in 807.0 W/m2 CLR
11:56 42.4 °F 25.1 °F 30.16 in WSW 3.9 mph 4.6 mph 50 % 0.00 in 819.0 W/m2 CLR
12:01 42.4 °F 25.1 °F 30.16 in West 6.1 mph 7.0 mph 50 % 0.00 in 800.0 W/m2 CLR
12:07 42.8 °F 24.9 °F 30.16 in WNW 5.1 mph 9.2 mph 49 % 0.00 in 819.0 W/m2 CLR
12:12 42.6 °F 24.8 °F 30.16 in West 4.3 mph 8.1 mph 49 % 0.00 in 833.0 W/m2 CLR
12:17 42.9 °F 25.0 °F 30.16 in West 5.6 mph 5.6 mph 49 % 0.00 in 838.0 W/m2 CLR
12:22 43.2 °F 24.8 °F 30.15 in NW 1.7 mph 4.6 mph 48 % 0.00 in 842.0 W/m2 CLR
12:27 43.3 °F 23.9 °F 30.16 in NW 1.8 mph 5.8 mph 46 % 0.00 in 844.0 W/m2 CLR
12:32 43.2 °F 23.3 °F 30.15 in WNW 1.4 mph 3.5 mph 45 % 0.00 in 847.0 W/m2 CLR
12:37 43.9 °F 24.4 °F 30.16 in WNW 1.8 mph 3.5 mph 46 % 0.00 in 849.0 W/m2 CLR
12:42 43.4 °F 24.0 °F 30.16 in WNW 2.3 mph 4.6 mph 46 % 0.00 in 851.0 W/m2 CLR
12:47 43.9 °F 24.4 °F 30.16 in WNW 3.2 mph 5.8 mph 46 % 0.00 in 851.0 W/m2 CLR
12:52 44.5 °F 25.0 °F 30.16 in NW 1.1 mph 3.5 mph 46 % 0.00 in 853.0 W/m2 CLR
12:57 44.2 °F 25.2 °F 30.16 in WSW 6.1 mph 9.0 mph 47 % 0.00 in 854.0 W/m2 CLR
13:02 44.1 °F 24.6 °F 30.16 in SW 4.7 mph 6.9 mph 46 % 0.00 in 854.0 W/m2 CLR
13:07 44.4 °F 24.4 °F 30.16 in WSW 3.5 mph 8.1 mph 45 % 0.00 in 854.0 W/m2 CLR
13:12 44.2 °F 25.2 °F 30.16 in West 6.8 mph 11.5 mph 47 % 0.00 in 854.0 W/m2 CLR
13:17 44.6 °F 26.6 °F 30.16 in West 3.8 mph 6.9 mph 49 % 0.00 in 856.0 W/m2 CLR
13:22 44.8 °F 25.3 °F 30.16 in NW 8.4 mph 11.5 mph 46 % 0.00 in 849.0 W/m2 CLR
13:27 44.9 °F 25.9 °F 30.16 in West 5.7 mph 9.2 mph 47 % 0.00 in 838.0 W/m2 CLR
13:32 45.6 °F 26.5 °F 30.16 in NW 3.1 mph 4.6 mph 47 % 0.00 in 842.0 W/m2 CLR
13:37 46.2 °F 25.5 °F 30.15 in WNW 6.7 mph 9.2 mph 44 % 0.00 in 842.0 W/m2 CLR
13:42 46.1 °F 25.9 °F 30.15 in West 1.7 mph 3.5 mph 45 % 0.00 in 849.0 W/m2 CLR
13:47 46.5 °F 25.7 °F 30.15 in WNW 4.7 mph 8.1 mph 44 % 0.00 in 830.0 W/m2 CLR
13:52 47.2 °F 25.3 °F 30.15 in West 4.5 mph 8.0 mph 42 % 0.00 in 796.0 W/m2 CLR
13:57 47.6 °F 23.8 °F 30.14 in WNW 5.0 mph 8.1 mph 39 % 0.00 in 860.0 W/m2 CLR
14:02 47.0 °F 25.1 °F 30.14 in West 4.1 mph 6.9 mph 42 % 0.00 in 642.0 W/m2 CLR
14:07 46.7 °F 24.8 °F 30.14 in SW 4.9 mph 8.1 mph 42 % 0.00 in 838.0 W/m2 CLR
14:12 46.8 °F 25.5 °F 30.13 in West 4.7 mph 8.1 mph 43 % 0.00 in 457.0 W/m2 FEW
14:17 46.7 °F 25.4 °F 30.13 in WSW 2.0 mph 3.5 mph 43 % 0.00 in 519.0 W/m2 FEW
14:22 46.9 °F 25.0 °F 30.12 in SSW 1.5 mph 3.5 mph 42 % 0.00 in 717.0 W/m2 CLR
14:27 46.9 °F 24.4 °F 30.12 in WSW 0.8 mph 3.5 mph 41 % 0.00 in 496.0 W/m2 FEW
14:32 47.2 °F 25.3 °F 30.12 in West 2.4 mph 5.8 mph 42 % 0.00 in 501.0 W/m2 FEW
14:37 48.1 °F 23.7 °F 30.11 in WNW 0.8 mph 3.5 mph 38 % 0.00 in 995.0 W/m2 CLR
14:42 48.9 °F 25.0 °F 30.12 in WNW 1.4 mph 5.8 mph 39 % 0.00 in 693.0 W/m2 CLR
14:47 48.5 °F 22.1 °F 30.11 in West 1.6 mph 5.8 mph 35 % 0.00 in 492.0 W/m2 FEW
14:52 48.3 °F 22.5 °F 30.11 in NW 7.1 mph 12.0 mph 36 % 0.00 in 461.0 W/m2 FEW
14:57 49.1 °F 24.6 °F 30.11 in NW 5.4 mph 14.0 mph 38 % 0.00 in 443.0 W/m2 FEW
15:02 48.8 °F 24.9 °F 30.11 in WNW 5.4 mph 10.0 mph 39 % 0.00 in 413.0 W/m2 FEW
15:07 48.5 °F 24.0 °F 30.11 in NW 3.3 mph 8.1 mph 38 % 0.00 in 371.0 W/m2 SCT
15:12 48.6 °F 24.7 °F 30.11 in NW 2.2 mph 6.9 mph 39 % 0.00 in 343.0 W/m2 SCT
15:17 48.3 °F 23.8 °F 30.10 in NW 3.2 mph 6.9 mph 38 % 0.00 in 434.0 W/m2 FEW
15:22 48.4 °F 25.2 °F 30.10 in NNW 3.1 mph 6.0 mph 40 % 0.00 in 380.0 W/m2 SCT
15:27 48.2 °F 24.4 °F 30.10 in NW 3.5 mph 9.0 mph 39 % 0.00 in 362.0 W/m2 SCT
15:32 48.4 °F 25.2 °F 30.10 in NW 4.3 mph 9.2 mph 40 % 0.00 in 341.0 W/m2 SCT
15:37 48.3 °F 24.5 °F 30.10 in West 2.9 mph 5.8 mph 39 % 0.00 in 290.0 W/m2 SCT
15:38 48.2 °F 24.4 °F 30.10 in SSW 3.2 mph 5.8 mph 39 % 0.00 in 290.0 W/m2 SCT
15:43 47.4 °F 25.4 °F 30.09 in WSW 4.9 mph 4.9 mph 42 % 0.00 in 274.0 W/m2 BKN
15:48 47.1 °F 25.7 °F 30.09 in West 2.7 mph 6.9 mph 43 % 0.00 in 329.0 W/m2 SCT
15:53 47.5 °F 26.1 °F 30.09 in West 7.1 mph 9.2 mph 43 % 0.00 in 320.0 W/m2 SCT
15:58 47.3 °F 24.8 °F 30.09 in West 8.9 mph 11.5 mph 41 % 0.00 in 283.0 W/m2 SCT
16:03 47.1 °F 25.2 °F 30.09 in West 7.2 mph 10.4 mph 42 % 0.00 in 248.0 W/m2 SCT
16:13 47.0 °F 25.6 °F 30.08 in West 7.4 mph 10.4 mph 43 % 0.00 in 283.0 W/m2 SCT
16:18 47.0 °F 25.6 °F 30.08 in WSW 5.8 mph 9.0 mph 43 % 0.00 in 327.0 W/m2 FEW
16:23 47.0 °F 25.6 °F 30.08 in WSW 6.6 mph 10.4 mph 43 % 0.00 in 336.0 W/m2 FEW
16:28 47.0 °F 26.2 °F 30.08 in West 5.4 mph 8.1 mph 44 % 0.00 in 285.0 W/m2 FEW
16:33 47.0 °F 26.2 °F 30.07 in West 1.4 mph 3.5 mph 44 % 0.00 in 232.0 W/m2 SCT
16:43 47.0 °F 26.2 °F 30.07 in West 4.3 mph 10.0 mph 44 % 0.00 in 179.0 W/m2 BKN
16:48 47.0 °F 25.6 °F 30.07 in WNW 2.8 mph 4.0 mph 43 % 0.00 in 179.0 W/m2 BKN
16:53 46.8 °F 25.5 °F 30.07 in WNW 3.6 mph 9.2 mph 43 % 0.00 in 192.0 W/m2 SCT
16:58 46.8 °F 26.6 °F 30.07 in West 4.1 mph 7.0 mph 45 % 0.00 in 162.0 W/m2 BKN
17:03 46.6 °F 26.9 °F 30.06 in West 3.5 mph 6.9 mph 46 % 0.00 in 172.0 W/m2 SCT
17:08 46.5 °F 27.8 °F 30.06 in West 2.9 mph 3.5 mph 48 % 0.00 in 171.0 W/m2 SCT
17:13 46.4 °F 27.2 °F 30.06 in West 1.8 mph 3.5 mph 47 % 0.00 in 167.0 W/m2 SCT
17:18 46.4 °F 26.7 °F 30.06 in West 3.6 mph 6.9 mph 46 % 0.00 in 183.0 W/m2 SCT
17:23 46.3 °F 27.2 °F 30.05 in West 2.9 mph 3.5 mph 47 % 0.00 in 162.0 W/m2 SCT
17:24 46.3 °F 27.2 °F 30.06 in West 2.7 mph 3.5 mph 47 % 0.00 in 156.0 W/m2 SCT
17:29 46.3 °F 27.7 °F 30.05 in WSW 1.0 mph 3.5 mph 48 % 0.00 in 149.0 W/m2 SCT
17:34 46.4 °F 27.8 °F 30.05 in WSW 0.6 mph 3.5 mph 48 % 0.00 in 169.0 W/m2 FEW
17:39 46.7 °F 28.0 °F 30.05 in West 3.2 mph 5.8 mph 48 % 0.00 in 399.0 W/m2 CLR
17:44 46.8 °F 27.6 °F 30.05 in West 4.5 mph 6.9 mph 47 % 0.00 in 355.0 W/m2 CLR
17:49 46.8 °F 27.1 °F 30.05 in West 3.6 mph 5.8 mph 46 % 0.00 in 172.0 W/m2 CLR
17:54 46.7 °F 27.0 °F 30.05 in WSW 3.3 mph 4.6 mph 46 % 0.00 in 156.0 W/m2 FEW
17:59 46.6 °F 26.4 °F 30.04 in West 5.7 mph 6.9 mph 45 % 0.00 in 179.0 W/m2 CLR
18:04 46.5 °F 27.3 °F 30.05 in WSW 2.3 mph 4.0 mph 47 % 0.00 in 148.0 W/m2 CLR
18:09 46.4 °F 27.2 °F 30.05 in Calm     47 % 0.00 in 97.0 W/m2 SCT
18:14 45.9 °F 27.3 °F 30.05 in WSW 1.9 mph 6.9 mph 48 % 0.00 in 84.0 W/m2 SCT
18:19 45.7 °F 26.6 °F 30.05 in WSW 0.4 mph 2.3 mph 47 % 0.00 in 70.0 W/m2 SCT
18:24 45.4 °F 26.3 °F 30.05 in WSW 0.9 mph 3.5 mph 47 % 0.00 in 62.0 W/m2 SCT
18:29 45.1 °F 26.1 °F 30.05 in WSW 0.5 mph 2.3 mph 47 % 0.00 in 44.0 W/m2 BKN
18:34 44.9 °F 26.4 °F 30.05 in WSW 0.6 mph 2.3 mph 48 % 0.00 in 32.0 W/m2 BKN
18:39 44.6 °F 26.1 °F 30.05 in WSW 0.1 mph 1.2 mph 48 % 0.00 in 25.0 W/m2 BKN
18:44 44.4 °F 25.9 °F 30.05 in West 0.2 mph 3.5 mph 48 % 0.00 in 26.0 W/m2 BKN
18:49 44.4 °F 25.4 °F 30.04 in West 0.4 mph 2.3 mph 47 % 0.00 in 26.0 W/m2 SCT
18:54 44.5 °F 24.5 °F 30.04 in Calm     45 % 0.00 in 19.0 W/m2 SCT
18:59 44.6 °F 24.0 °F 30.04 in Calm     44 % 0.00 in 14.0 W/m2 SCT
19:04 44.6 °F 24.0 °F 30.04 in Calm     44 % 0.00 in 9.0 W/m2 BKN
19:09 44.5 °F 25.0 °F 30.04 in Calm     46 % 0.00 in 5.0 W/m2 SCT
19:14 44.3 °F 24.3 °F 30.04 in West 0.6 mph 3.5 mph 45 % 0.00 in 0.0 W/m2 SCT
19:19 44.1 °F 24.1 °F 30.04 in Calm     45 % 0.00 in 0.0 W/m2 SCT
19:24 44.0 °F 25.0 °F 30.04 in Calm     47 % 0.00 in 0.0 W/m2 SCT
19:29 43.9 °F 24.9 °F 30.04 in Calm     47 % 0.00 in 0.0 W/m2 SCT
19:34 43.6 °F 25.2 °F 30.04 in Calm     48 % 0.00 in 0.0 W/m2 SCT
19:39 43.1 °F 25.2 °F 30.04 in Calm   1.2 mph 49 % 0.00 in 0.0 W/m2 SCT
19:44 43.0 °F 25.6 °F 30.04 in West 0.3 mph 2.3 mph 50 % 0.00 in 0.0 W/m2 SCT
19:49 43.2 °F 25.3 °F 30.05 in West 0.3 mph 2.3 mph 49 % 0.00 in 0.0 W/m2 SCT
19:54 43.2 °F 25.3 °F 30.05 in Calm   2.3 mph 49 % 0.00 in 0.0 W/m2 SCT
19:59 43.0 °F 25.6 °F 30.06 in Calm     50 % 0.00 in 0.0 W/m2 SCT
20:04 43.0 °F 25.1 °F 30.06 in WNW 1.2 mph 4.0 mph 49 % 0.00 in 0.0 W/m2 SCT
20:09 43.1 °F 25.2 °F 30.05 in WNW 0.1 mph 1.0 mph 49 % 0.00 in 0.0 W/m2 SCT
20:14 43.0 °F 24.6 °F 30.05 in West 1.5 mph 2.3 mph 48 % 0.00 in 0.0 W/m2 SCT
20:19 42.9 °F 24.5 °F 30.06 in West 2.5 mph 4.0 mph 48 % 0.00 in 0.0 W/m2 SCT
20:24 42.9 °F 24.0 °F 30.06 in West 2.0 mph 3.5 mph 47 % 0.00 in 0.0 W/m2 SCT
20:29 42.8 °F 23.9 °F 30.05 in West 0.9 mph 3.5 mph 47 % 0.00 in 0.0 W/m2 SCT
20:35 42.7 °F 23.8 °F 30.06 in West 0.7 mph 3.5 mph 47 % 0.00 in 0.0 W/m2 SCT
20:40 42.6 °F 23.8 °F 30.06 in West 0.2 mph   47 % 0.00 in 0.0 W/m2 SCT
20:45 42.5 °F 24.2 °F 30.06 in Calm     48 % 0.00 in 0.0 W/m2 SCT
20:50 42.3 °F 24.9 °F 30.06 in Calm   3.0 mph 50 % 0.00 in 0.0 W/m2 CLR
20:55 42.0 °F 25.2 °F 30.06 in Calm   3.0 mph 51 % 0.00 in 0.0 W/m2 CLR
21:00 41.8 °F 24.5 °F 30.07 in WSW 2.3 mph 4.6 mph 50 % 0.00 in 0.0 W/m2 SCT
21:05 41.7 °F 24.9 °F 30.07 in WSW 2.1 mph 3.5 mph 51 % 0.00 in 0.0 W/m2 SCT
21:10 41.6 °F 25.7 °F 30.07 in Calm     53 % 0.00 in 0.0 W/m2 SCT
21:15 41.5 °F 25.2 °F 30.06 in SW 1.0 mph 3.5 mph 52 % 0.00 in 0.0 W/m2 SCT
21:20 41.4 °F 25.5 °F 30.06 in SW 0.3 mph 2.3 mph 53 % 0.00 in 0.0 W/m2 SCT
21:25 41.2 °F 25.8 °F 30.06 in Calm     54 % 0.00 in 0.0 W/m2 SCT
21:30 41.1 °F 26.1 °F 30.06 in Calm   1.2 mph 55 % 0.00 in 0.0 W/m2 SCT
21:35 41.0 °F 26.5 °F 30.06 in Calm     56 % 0.00 in 0.0 W/m2 SCT
21:40 41.0 °F 26.5 °F 30.06 in Calm     56 % 0.00 in 0.0 W/m2 SCT
21:45 40.9 °F 26.8 °F 30.06 in Calm     57 % 0.00 in 0.0 W/m2 SCT
21:50 40.8 °F 26.7 °F 30.06 in Calm     57 % 0.00 in 0.0 W/m2 SCT
21:55 40.8 °F 26.7 °F 30.05 in Calm     57 % 0.00 in 0.0 W/m2 SCT
22:00 40.8 °F 27.2 °F 30.06 in Calm     58 % 0.00 in 0.0 W/m2 SCT
22:05 40.8 °F 27.2 °F 30.05 in Calm     58 % 0.00 in 0.0 W/m2 SCT
22:10 40.8 °F 27.6 °F 30.05 in Calm     59 % 0.00 in 0.0 W/m2 SCT
22:15 40.9 °F 27.7 °F 30.05 in Calm     59 % 0.00 in 0.0 W/m2 SCT
22:20 40.8 °F 27.6 °F 30.06 in Calm     59 % 0.00 in 0.0 W/m2 SCT
22:25 40.8 °F 27.6 °F 30.06 in Calm     59 % 0.00 in 0.0 W/m2 SCT
22:30 40.8 °F 27.6 °F 30.06 in Calm     59 % 0.00 in 0.0 W/m2 SCT
22:35 40.8 °F 27.6 °F 30.05 in Calm     59 % 0.00 in 0.0 W/m2 SCT
22:40 40.8 °F 27.6 °F 30.05 in Calm     59 % 0.00 in 0.0 W/m2 SCT
22:45 40.8 °F 27.6 °F 30.05 in Calm     59 % 0.00 in 0.0 W/m2 SCT
22:50 40.8 °F 27.6 °F 30.06 in Calm     59 % 0.00 in 0.0 W/m2 SCT
22:55 40.8 °F 28.0 °F 30.06 in Calm     60 % 0.00 in 0.0 W/m2 SCT
23:00 40.8 °F 27.6 °F 30.05 in Calm     59 % 0.00 in 0.0 W/m2 SCT
23:05 40.8 °F 27.6 °F 30.06 in Calm   2.3 mph 59 % 0.00 in 0.0 W/m2 SCT
23:10 40.7 °F 27.5 °F 30.05 in Calm     59 % 0.00 in 0.0 W/m2 SCT
23:15 40.6 °F 27.8 °F 30.05 in Calm     60 % 0.00 in 0.0 W/m2 SCT
23:20 40.6 °F 27.8 °F 30.05 in WSW 0.2 mph 3.5 mph 60 % 0.00 in 0.0 W/m2 SCT
23:21 40.6 °F 27.8 °F 30.05 in Calm     60 % 0.00 in 0.0 W/m2 SCT
23:26 40.6 °F 27.8 °F 30.05 in WSW 0.5 mph 3.5 mph 60 % 0.00 in 0.0 W/m2 SCT
23:31 40.6 °F 27.8 °F 30.05 in Calm   1.2 mph 60 % 0.00 in 0.0 W/m2 SCT
23:36 40.5 °F 28.1 °F 30.05 in Calm     61 % 0.00 in 0.0 W/m2 SCT
23:41 40.5 °F 28.1 °F 30.05 in Calm   1.2 mph 61 % 0.00 in 0.0 W/m2 SCT
23:46 40.4 °F 28.0 °F 30.04 in Calm     61 % 0.00 in 0.0 W/m2 SCT
23:51 40.4 °F 28.0 °F 30.04 in Calm     61 % 0.00 in 0.0 W/m2 SCT
23:56 40.6 °F 27.8 °F 30.04 in Calm     60 % 0.00 in 0.0 W/m2 SCT
Air Products Campus Weather
Compliments of Weather Underground - 3.75 mb